Terminal Aerodrome Forecast
Issued by NWS Omaha/Valley, NE

Current Version | Previous Version | Text Only | Print | Product List | Glossary On
Versions: 1 2 3 4 5 6 7 8 9 10 11 12 13 14 15 16 17 18 19 20 21 22 23 24 25 26 27 28 29 30 31 32 33 34 35 36 37 38 39
000
FTUS43 KOAX 140315 AAB
TAFOMA
TAF AMD
KOMA 140315Z 1403/1424 30005KT P6SM SCT100
     FM140700 34007KT P6SM BKN080
      TEMPO 1408/1412 4SM -SHRA BR OVC040
     FM141200 35010KT P6SM FEW040 BKN100
     FM141600 34014G23KT P6SM SCT040
      TEMPO 1418/1422 BKN040=

USA.gov is the U.S. government's official web portal to all federal, state and local government web resources and services.